Time;durP1;ratioP1;P1;durP2;ratioP2;P2;SDS_P1;SDS_P2;PMS_P1;PMS_P2;Temp;Humidity;BMP_temperature;BMP_pressure;BME280_temperature;BME280_humidity;BME280_pressure;Samples;Min_cycle;Max_cycle;Signal;HPM_P1;HPM_P2
2022/07/31 00:03:46;;;;;;;1.20;1.02;;;22.30;58.40;;;;;;20800253;28;20555;-81
2022/07/31 00:13:46;;;;;;;2.22;1.25;;;22.30;58.40;;;;;;20832454;28;20041;-83
2022/07/31 00:23:47;;;;;;;2.35;1.30;;;22.30;58.50;;;;;;20831568;28;20527;-82
2022/07/31 00:33:47;;;;;;;2.42;1.70;;;22.20;58.50;;;;;;20830491;28;20527;-83
2022/07/31 00:43:48;;;;;;;1.45;1.17;;;22.30;58.60;;;;;;20813949;28;20037;-83
2022/07/31 00:53:49;;;;;;;1.70;1.30;;;22.30;58.60;;;;;;20829424;28;20483;-82
2022/07/31 01:03:49;;;;;;;2.35;1.38;;;22.30;58.70;;;;;;21194956;22;20072;-81
2022/07/31 01:14:00;;;;;;;1.42;1.23;;;22.20;58.60;;;;;;20806127;28;20037;-81
2022/07/31 01:24:22;;;;;;;2.65;1.50;;;22.30;58.70;;;;;;20822452;28;20045;-81
2022/07/31 01:35:02;;;;;;;2.08;1.23;;;22.20;58.70;;;;;;20833139;28;20045;-80
2022/07/31 01:45:04;;;;;;;1.73;1.30;;;22.20;58.70;;;;;;20809035;28;20114;-81
2022/07/31 01:55:05;;;;;;;1.27;1.17;;;22.20;58.70;;;;;;20807506;28;20039;-81
2022/07/31 02:05:09;;;;;;;2.08;1.50;;;22.20;58.80;;;;;;20806034;28;20074;-82
2022/07/31 02:15:11;;;;;;;5.60;1.48;;;22.20;58.80;;;;;;20818628;28;20495;-81
2022/07/31 02:25:14;;;;;;;1.13;0.97;;;22.20;58.80;;;;;;20822465;28;20427;-81
2022/07/31 02:35:15;;;;;;;2.27;1.60;;;22.20;58.90;;;;;;20806139;28;20021;-79
2022/07/31 02:45:17;;;;;;;2.22;1.30;;;22.20;58.90;;;;;;20796987;28;20296;-80
2022/07/31 02:55:19;;;;;;;1.75;1.42;;;22.20;58.90;;;;;;20804629;28;20034;-80
2022/07/31 03:05:20;;;;;;;2.40;1.52;;;22.20;59.00;;;;;;20831843;28;20167;-81
2022/07/31 03:15:22;;;;;;;3.15;1.20;;;22.20;59.00;;;;;;20835842;28;20032;-81
2022/07/31 03:25:23;;;;;;;2.95;1.40;;;22.10;59.00;;;;;;20819011;28;20033;-82
2022/07/31 03:35:25;;;;;;;1.65;1.30;;;22.10;59.00;;;;;;20818677;28;20026;-80
2022/07/31 03:45:26;;;;;;;1.67;1.50;;;22.10;59.00;;;;;;20804473;28;20071;-80
2022/07/31 03:55:27;;;;;;;2.13;1.38;;;22.20;59.10;;;;;;20800502;28;20732;-81
2022/07/31 04:05:27;;;;;;;2.10;1.60;;;22.10;59.00;;;;;;20803118;28;20490;-80
2022/07/31 04:15:29;;;;;;;1.48;1.27;;;22.10;59.00;;;;;;20814773;28;20060;-81
2022/07/31 04:25:30;;;;;;;1.35;1.25;;;22.00;59.00;;;;;;20831318;28;20388;-79
2022/07/31 04:35:49;;;;;;;1.60;1.20;;;22.10;59.00;;;;;;20805100;28;20036;-81
2022/07/31 04:45:49;;;;;;;1.65;1.30;;;22.10;59.00;;;;;;20812477;28;20042;-81
2022/07/31 05:06:10;;;;;;;1.38;1.10;;;22.10;59.00;;;;;;20829271;28;20048;-81
2022/07/31 05:16:11;;;;;;;2.53;1.67;;;22.00;58.90;;;;;;20827522;28;20029;-80
2022/07/31 05:26:12;;;;;;;2.03;1.30;;;22.00;59.00;;;;;;20824413;28;20048;-80
2022/07/31 05:36:13;;;;;;;1.63;1.27;;;22.00;59.00;;;;;;20809570;28;20033;-80
2022/07/31 05:46:16;;;;;;;2.10;1.48;;;22.10;59.00;;;;;;20798344;28;20033;-80
2022/07/31 05:56:17;;;;;;;1.60;1.15;;;22.00;59.00;;;;;;20824997;28;20033;-80
2022/07/31 06:06:22;;;;;;;2.70;1.55;;;22.00;59.00;;;;;;20806775;28;20440;-80
2022/07/31 06:16:23;;;;;;;1.50;1.40;;;22.10;59.10;;;;;;20822197;28;20067;-79
2022/07/31 06:26:24;;;;;;;1.83;1.33;;;22.00;59.10;;;;;;20800758;28;20606;-78
2022/07/31 06:36:25;;;;;;;2.33;1.40;;;22.00;59.10;;;;;;20808042;28;20272;-76
2022/07/31 06:46:32;;;;;;;1.70;1.13;;;22.10;59.20;;;;;;20808595;28;20328;-76
2022/07/31 06:56:51;;;;;;;1.48;1.27;;;22.00;59.20;;;;;;20825113;28;20049;-78
2022/07/31 07:06:52;;;;;;;2.95;1.33;;;22.10;60.00;;;;;;20800560;28;20068;-78
2022/07/31 07:16:53;;;;;;;2.92;1.20;;;22.10;59.40;;;;;;20820048;28;20073;-78
2022/07/31 07:26:54;;;;;;;1.50;1.08;;;22.10;59.40;;;;;;20803532;28;20059;-79
2022/07/31 07:36:54;;;;;;;1.77;1.38;;;22.10;59.40;;;;;;20803741;28;20067;-76
2022/07/31 07:46:59;;;;;;;1.87;1.33;;;22.20;59.40;;;;;;20807344;28;20081;-78
2022/07/31 07:57:01;;;;;;;3.72;1.63;;;22.20;59.40;;;;;;20783355;28;20069;-76
2022/07/31 08:07:34;;;;;;;1.85;1.13;;;22.20;59.40;;;;;;20836455;28;20124;-74
2022/07/31 08:17:35;;;;;;;2.08;1.42;;;22.20;59.30;;;;;;20816026;28;20037;-76
2022/07/31 08:27:35;;;;;;;2.22;1.30;;;22.20;59.30;;;;;;20801328;28;20422;-78
2022/07/31 08:37:36;;;;;;;2.00;1.10;;;22.20;59.30;;;;;;20817646;28;20131;-79
2022/07/31 08:47:37;;;;;;;2.75;1.05;;;22.20;59.40;;;;;;20818024;28;20284;-80
2022/07/31 08:57:46;;;;;;;4.38;1.77;;;22.20;59.30;;;;;;20813252;28;20083;-80
2022/07/31 09:07:47;;;;;;;3.85;2.50;;;22.20;59.30;;;;;;20812326;28;20065;-81
2022/07/31 09:17:48;;;;;;;4.15;1.85;;;22.30;59.50;;;;;;20763911;28;20069;-80
2022/07/31 09:27:51;;;;;;;5.43;2.20;;;22.40;59.70;;;;;;20803326;28;20549;-83
2022/07/31 09:37:52;;;;;;;3.35;2.00;;;22.30;60.20;;;;;;20812259;28;20409;-81
2022/07/31 09:48:11;;;;;;;7.45;1.92;;;22.30;59.50;;;;;;20814559;28;20037;-80
2022/07/31 09:58:12;;;;;;;4.95;1.92;;;22.40;59.40;;;;;;20797211;28;20068;-81
2022/07/31 10:08:16;;;;;;;4.10;1.50;;;22.40;59.30;;;;;;20795476;28;20410;-78
2022/07/31 10:18:37;;;;;;;3.45;1.58;;;22.40;59.20;;;;;;20805009;28;20132;-78
2022/07/31 10:29:01;;;;;;;2.60;1.70;;;22.40;59.00;;;;;;20809009;28;20045;-78
2022/07/31 10:39:16;;;;;;;2.20;1.52;;;22.40;58.90;;;;;;20790193;28;20038;-82
2022/07/31 10:49:43;;;;;;;2.63;1.38;;;22.40;58.90;;;;;;20791906;28;20033;-84
2022/07/31 11:00:12;;;;;;;2.27;1.43;;;22.40;58.80;;;;;;20825765;28;20254;-88
2022/07/31 11:10:52;;;;;;;2.45;1.50;;;22.40;58.80;;;;;;20809386;28;20048;-83
2022/07/31 11:21:35;;;;;;;2.75;1.73;;;22.40;58.70;;;;;;20809211;28;20103;-81
2022/07/31 11:31:36;;;;;;;1.73;1.27;;;22.50;58.70;;;;;;20811665;28;20498;-78
2022/07/31 11:41:37;;;;;;;2.17;1.40;;;22.50;58.60;;;;;;20830613;28;20034;-77
2022/07/31 11:51:37;;;;;;;2.47;1.25;;;22.50;58.50;;;;;;20790198;28;20128;-77
2022/07/31 12:01:38;;;;;;;2.22;1.40;;;22.50;58.50;;;;;;20830028;28;20091;-78
2022/07/31 12:11:38;;;;;;;3.45;1.88;;;22.50;58.40;;;;;;20829548;28;20041;-78
2022/07/31 12:21:39;;;;;;;3.35;1.38;;;22.50;58.30;;;;;;20796265;28;20187;-77
2022/07/31 12:31:49;;;;;;;1.20;1.10;;;22.60;58.30;;;;;;20827482;28;20543;-77
2022/07/31 12:41:50;;;;;;;1.40;1.00;;;22.60;58.10;;;;;;20796361;28;20037;-77
2022/07/31 12:51:50;;;;;;;3.30;1.05;;;22.60;58.10;;;;;;20795690;28;20025;-75
2022/07/31 13:01:51;;;;;;;6.07;1.20;;;22.70;58.10;;;;;;20808925;28;20095;-76
2022/07/31 13:11:52;;;;;;;2.17;1.27;;;22.80;58.20;;;;;;20794527;28;20634;-76
2022/07/31 13:21:52;;;;;;;2.42;1.65;;;22.80;58.20;;;;;;20827080;28;20080;-75
2022/07/31 13:31:53;;;;;;;6.80;3.17;;;22.90;58.20;;;;;;20824495;28;20033;-75
2022/07/31 13:41:53;;;;;;;9.35;4.82;;;22.90;58.20;;;;;;20806510;28;20418;-75
2022/07/31 13:51:54;;;;;;;15.25;6.70;;;23.00;58.20;;;;;;20824411;28;20040;-74
2022/07/31 14:01:55;;;;;;;26.52;9.77;;;23.10;58.10;;;;;;20822235;28;20048;-72
2022/07/31 14:11:56;;;;;;;28.17;12.13;;;23.20;58.10;;;;;;20796825;28;20042;-74
2022/07/31 14:21:56;;;;;;;28.98;11.27;;;23.20;58.00;;;;;;20794824;28;20045;-73
2022/07/31 14:31:57;;;;;;;23.50;10.63;;;23.20;57.90;;;;;;20795552;28;20682;-73
2022/07/31 14:41:58;;;;;;;23.93;10.63;;;23.20;57.80;;;;;;20787654;28;20037;-75
2022/07/31 14:51:58;;;;;;;21.52;9.32;;;23.20;57.80;;;;;;20773709;28;20144;-74
2022/07/31 15:01:59;;;;;;;20.60;9.10;;;23.20;57.70;;;;;;20819275;28;20557;-77
2022/07/31 15:11:59;;;;;;;18.45;7.30;;;23.10;57.70;;;;;;20829787;28;20033;-73
2022/07/31 15:22:00;;;;;;;18.27;7.82;;;23.20;57.80;;;;;;20833862;28;20037;-73
2022/07/31 15:32:01;;;;;;;14.57;7.50;;;23.10;57.80;;;;;;20816732;28;20032;-73
2022/07/31 15:42:01;;;;;;;19.67;8.35;;;23.10;57.90;;;;;;20832557;28;20049;-73
2022/07/31 15:52:02;;;;;;;14.15;6.68;;;23.10;58.00;;;;;;20815742;28;20156;-72
2022/07/31 16:02:03;;;;;;;19.00;7.18;;;23.10;57.90;;;;;;20814872;28;20045;-74
2022/07/31 16:12:03;;;;;;;14.50;6.70;;;23.10;57.90;;;;;;20805702;28;20041;-73
2022/07/31 16:22:04;;;;;;;11.38;5.75;;;23.10;57.90;;;;;;20796791;28;20168;-73
2022/07/31 16:32:05;;;;;;;10.52;5.60;;;23.10;57.90;;;;;;20796911;28;20125;-73
2022/07/31 16:42:06;;;;;;;9.88;4.93;;;23.10;57.80;;;;;;20811433;28;20048;-74
2022/07/31 16:52:06;;;;;;;10.07;5.45;;;23.00;57.80;;;;;;20803031;28;20030;-74
2022/07/31 17:02:07;;;;;;;8.40;5.30;;;23.00;57.80;;;;;;20826412;28;20077;-73
2022/07/31 17:12:07;;;;;;;10.17;4.70;;;23.00;57.80;;;;;;20826617;28;20124;-74
2022/07/31 17:22:09;;;;;;;6.53;4.07;;;23.00;57.80;;;;;;20807858;28;20304;-73
2022/07/31 17:32:09;;;;;;;9.38;3.90;;;23.00;57.90;;;;;;20824145;28;20084;-73
2022/07/31 17:42:10;;;;;;;8.32;3.85;;;23.00;57.90;;;;;;20807741;28;20033;-72
2022/07/31 17:52:10;;;;;;;7.32;3.88;;;23.00;58.10;;;;;;20790387;28;20482;-73
2022/07/31 18:02:12;;;;;;;7.40;3.33;;;23.00;58.30;;;;;;20789472;28;20061;-75
2022/07/31 18:12:12;;;;;;;7.63;3.15;;;23.00;58.60;;;;;;20783507;28;20615;-74
2022/07/31 18:22:13;;;;;;;5.77;3.30;;;23.00;59.00;;;;;;20804077;28;20052;-74
2022/07/31 18:32:14;;;;;;;6.45;3.05;;;22.90;59.30;;;;;;20822263;28;20049;-74
2022/07/31 18:42:14;;;;;;;5.05;2.72;;;22.90;59.40;;;;;;20804285;28;20184;-73
2022/07/31 18:52:15;;;;;;;4.55;2.47;;;22.90;59.50;;;;;;20789975;28;20030;-73
2022/07/31 19:02:15;;;;;;;4.20;2.80;;;22.90;59.60;;;;;;20803189;28;20072;-74
2022/07/31 19:12:16;;;;;;;6.82;2.85;;;22.90;59.70;;;;;;20802639;28;20402;-73
2022/07/31 19:22:16;;;;;;;4.83;2.37;;;22.80;59.80;;;;;;20819157;28;20403;-73
2022/07/31 19:32:17;;;;;;;3.35;2.00;;;22.90;59.90;;;;;;20819000;28;20069;-74
2022/07/31 19:42:18;;;;;;;3.70;2.22;;;22.90;60.00;;;;;;20809572;28;20045;-74
2022/07/31 19:52:18;;;;;;;3.23;1.93;;;22.80;60.10;;;;;;20799307;28;20029;-73
2022/07/31 20:02:19;;;;;;;3.23;2.07;;;22.80;60.10;;;;;;20830922;28;20167;-74
2022/07/31 20:12:19;;;;;;;3.25;2.22;;;22.80;60.20;;;;;;20813793;28;20335;-75
2022/07/31 20:22:20;;;;;;;3.30;1.88;;;22.80;60.20;;;;;;20830415;28;20033;-75
2022/07/31 20:32:20;;;;;;;3.00;1.88;;;22.80;60.20;;;;;;20811835;28;20041;-75
2022/07/31 20:42:21;;;;;;;3.30;2.00;;;22.80;60.20;;;;;;20795416;28;20132;-75
2022/07/31 20:52:22;;;;;;;2.97;1.70;;;22.80;60.30;;;;;;20809701;28;20087;-74
2022/07/31 21:02:22;;;;;;;2.95;1.55;;;22.80;60.40;;;;;;20790973;28;20037;-74
2022/07/31 21:12:24;;;;;;;3.05;1.73;;;22.80;60.40;;;;;;20804872;28;20132;-75
2022/07/31 21:22:25;;;;;;;2.47;1.65;;;22.80;60.40;;;;;;20828104;28;20033;-77
2022/07/31 21:32:26;;;;;;;2.40;1.70;;;22.80;60.40;;;;;;20829162;28;20037;-79
2022/07/31 21:42:27;;;;;;;3.30;1.60;;;22.80;60.50;;;;;;20808683;28;20570;-81
2022/07/31 21:52:28;;;;;;;2.50;1.65;;;22.80;60.50;;;;;;20824781;28;20029;-81
2022/07/31 22:02:32;;;;;;;2.42;1.30;;;22.70;60.50;;;;;;20786002;28;20461;-80
2022/07/31 22:12:33;;;;;;;2.53;1.35;;;22.80;60.60;;;;;;20784552;28;20033;-80
2022/07/31 22:22:36;;;;;;;2.20;1.65;;;22.70;60.50;;;;;;20786231;28;20057;-81
2022/07/31 22:32:36;;;;;;;3.08;1.35;;;22.80;60.60;;;;;;20788111;28;20487;-80
2022/07/31 22:42:37;;;;;;;1.80;1.20;;;22.80;60.60;;;;;;20787745;28;20041;-80
2022/07/31 22:52:38;;;;;;;2.83;1.33;;;22.80;60.60;;;;;;20795903;28;20061;-80
2022/07/31 23:02:39;;;;;;;2.13;1.50;;;22.70;60.50;;;;;;20801337;28;20038;-81
2022/07/31 23:12:40;;;;;;;2.63;1.60;;;22.70;60.60;;;;;;20802927;28;20120;-80
2022/07/31 23:22:41;;;;;;;2.95;1.40;;;22.80;60.70;;;;;;20835031;28;20033;-81
2022/07/31 23:32:41;;;;;;;1.17;1.05;;;22.80;60.60;;;;;;20818084;28;20041;-82
2022/07/31 23:42:42;;;;;;;2.87;1.77;;;22.70;60.60;;;;;;20834162;28;20145;-81
2022/07/31 23:52:42;;;;;;;1.23;0.90;;;22.70;60.60;;;;;;20816501;28;20532;-82
